Time;durP1;ratioP1;P1;durP2;ratioP2;P2;SDS_P1;SDS_P2;PMS_P1;PMS_P2;Temp;Humidity;BMP_temperature;BMP_pressure;BME280_temperature;BME280_humidity;BME280_pressure;Samples;Min_cycle;Max_cycle;Signal;HPM_P1;HPM_P2
2021/07/08 00:01:24;;;;;;;;;;;;;;;27.99;61.28;100434.20;1601936;87;20203;-86
2021/07/08 00:03:50;;;;;;;;;;;;;;;28.00;61.25;100441.23;1610573;87;20133;-84
2021/07/08 00:06:15;;;;;;;;;;;;;;;27.91;61.59;100444.44;1607923;87;20130;-84
2021/07/08 00:08:41;;;;;;;;;;;;;;;27.93;61.53;100437.39;1598040;87;20989;-85
2021/07/08 00:11:06;;;;;;;;;;;;;;;27.98;61.51;100437.98;1598208;87;20167;-84
2021/07/08 00:13:32;;;;;;;;;;;;;;;28.00;61.55;100443.44;1606769;87;20169;-84
2021/07/08 00:15:58;;;;;;;;;;;;;;;27.98;61.62;100446.13;1596020;87;20696;-83
2021/07/08 00:18:26;;;;;;;;;;;;;;;27.98;61.84;100450.20;1600969;88;20169;-84
2021/07/08 00:20:52;;;;;;;;;;;;;;;28.05;61.63;100446.16;1599259;87;21170;-85
2021/07/08 00:23:18;;;;;;;;;;;;;;;28.11;61.35;100440.22;1599546;87;20317;-86
2021/07/08 00:25:44;;;;;;;;;;;;;;;28.25;60.96;100448.13;1603839;88;20194;-83
2021/07/08 00:28:15;;;;;;;;;;;;;;;28.27;61.03;100451.39;1597390;87;20126;-83
2021/07/08 00:30:40;;;;;;;;;;;;;;;28.43;60.48;100459.06;1605797;88;20197;-84
2021/07/08 00:33:06;;;;;;;;;;;;;;;28.48;60.28;100450.11;1592150;87;21346;-83
2021/07/08 00:35:32;;;;;;;;;;;;;;;28.53;59.96;100458.26;1593077;87;20612;-84
2021/07/08 00:37:57;;;;;;;;;;;;;;;28.50;59.97;100457.98;1595712;87;20130;-84
2021/07/08 00:40:23;;;;;;;;;;;;;;;28.39;60.28;100449.00;1594802;87;20145;-85
2021/07/08 00:42:48;;;;;;;;;;;;;;;28.36;60.65;100456.32;1599792;87;20171;-85
2021/07/08 00:45:15;;;;;;;;;;;;;;;28.29;60.53;100461.46;1601026;87;21098;-84
2021/07/08 00:47:41;;;;;;;;;;;;;;;27.89;61.86;100470.20;1599362;87;20126;-84
2021/07/08 00:50:07;;;;;;;;;;;;;;;27.77;62.25;100458.22;1597830;87;20422;-85
2021/07/08 00:52:33;;;;;;;;;;;;;;;27.57;63.08;100471.94;1593338;88;20223;-85
2021/07/08 00:54:59;;;;;;;;;;;;;;;27.38;64.00;100468.03;1614437;85;20226;-85
2021/07/08 00:57:24;;;;;;;;;;;;;;;27.28;64.45;100467.91;1602829;85;21097;-85
2021/07/08 00:59:53;;;;;;;;;;;;;;;27.21;64.71;100451.33;1601814;86;20319;-85
2021/07/08 01:02:17;;;;;;;;;;;;;;;27.28;64.41;100454.36;1616062;86;20228;-86
2021/07/08 01:04:43;;;;;;;;;;;;;;;27.04;65.28;100455.53;1598746;88;20195;-84
2021/07/08 01:07:10;;;;;;;;;;;;;;;27.15;65.02;100459.14;1635328;87;20205;-85
2021/07/08 01:09:36;;;;;;;;;;;;;;;27.00;65.44;100459.02;1632924;86;21100;-84
2021/07/08 01:12:02;;;;;;;;;;;;;;;26.87;66.04;100468.39;1594585;87;20129;-84
2021/07/08 01:14:27;;;;;;;;;;;;;;;26.94;65.80;100451.91;1587234;87;20239;-84
2021/07/08 01:16:53;;;;;;;;;;;;;;;27.04;65.46;100452.02;1581807;87;20494;-85
2021/07/08 01:19:19;;;;;;;;;;;;;;;27.09;65.29;100455.30;1623918;85;20287;-85
2021/07/08 01:21:44;;;;;;;;;;;;;;;26.98;65.79;100458.47;1601992;87;21108;-84
2021/07/08 01:24:10;;;;;;;;;;;;;;;26.83;66.89;100465.39;1603468;87;20177;-86
2021/07/08 01:26:40;;;;;;;;;;;;;;;26.82;67.27;100460.23;1596734;87;20522;-85
2021/07/08 01:29:06;;;;;;;;;;;;;;;26.66;68.89;100464.66;1597009;87;20190;-86
2021/07/08 01:31:32;;;;;;;;;;;;;;;26.66;69.40;100463.31;1615194;86;20200;-85
2021/07/08 01:33:58;;;;;;;;;;;;;;;26.49;70.77;100466.92;1586999;87;21123;-85
2021/07/08 01:36:23;;;;;;;;;;;;;;;26.49;71.01;100466.08;1611849;85;20171;-85
2021/07/08 01:38:49;;;;;;;;;;;;;;;26.54;70.70;100459.39;1611296;86;20204;-85
2021/07/08 01:41:14;;;;;;;;;;;;;;;26.32;72.24;100468.90;1598797;87;20622;-85
2021/07/08 01:43:41;;;;;;;;;;;;;;;26.17;73.28;100468.72;1611282;85;20153;-85
2021/07/08 01:46:07;;;;;;;;;;;;;;;26.19;73.22;100470.08;1638649;85;21088;-85
2021/07/08 01:48:33;;;;;;;;;;;;;;;26.20;73.32;100468.22;1635101;86;20131;-85
2021/07/08 01:51:02;;;;;;;;;;;;;;;26.30;72.58;100467.80;1612596;88;20176;-85
2021/07/08 01:53:27;;;;;;;;;;;;;;;26.29;72.56;100470.76;1625417;87;20216;-84
2021/07/08 01:55:53;;;;;;;;;;;;;;;26.25;72.76;100469.62;1616091;87;20167;-86
2021/07/08 01:58:18;;;;;;;;;;;;;;;26.18;73.08;100472.53;1612852;86;21180;-84
2021/07/08 02:00:46;;;;;;;;;;;;;;;26.17;73.20;100467.36;1601990;87;20227;-84
2021/07/08 02:03:11;;;;;;;;;;;;;;;26.06;73.66;100473.99;1605639;85;20166;-84
2021/07/08 02:05:37;;;;;;;;;;;;;;;26.11;73.32;100478.11;1619560;87;20177;-84
2021/07/08 02:08:03;;;;;;;;;;;;;;;26.09;73.73;100485.67;1615923;88;20144;-84
2021/07/08 02:10:29;;;;;;;;;;;;;;;25.91;74.44;100483.23;1600828;87;21881;-83
2021/07/08 02:12:54;;;;;;;;;;;;;;;25.85;74.70;100481.53;1603171;87;20247;-83
2021/07/08 02:15:20;;;;;;;;;;;;;;;25.90;74.44;100485.64;1574287;89;20859;-84
2021/07/08 02:17:45;;;;;;;;;;;;;;;25.93;74.48;100475.67;1610195;85;20420;-85
2021/07/08 02:20:13;;;;;;;;;;;;;;;25.78;74.81;100483.88;1605257;85;20126;-86
2021/07/08 02:22:38;;;;;;;;;;;;;;;25.65;75.56;100482.87;1615687;87;21838;-85
2021/07/08 02:25:05;;;;;;;;;;;;;;;25.66;75.65;100481.81;1620742;88;20164;-86
2021/07/08 02:27:30;;;;;;;;;;;;;;;25.57;75.92;100484.65;1599867;87;20200;-85
2021/07/08 02:29:56;;;;;;;;;;;;;;;25.57;75.92;100486.00;1584094;87;20568;-85
2021/07/08 02:32:23;;;;;;;;;;;;;;;25.54;75.98;100483.79;1605506;87;20186;-86
2021/07/08 02:34:49;;;;;;;;;;;;;;;25.61;75.65;100487.16;1602581;87;21029;-85
2021/07/08 02:37:15;;;;;;;;;;;;;;;25.58;75.28;100487.65;1624385;85;20749;-86
2021/07/08 02:39:40;;;;;;;;;;;;;;;25.60;75.04;100493.62;1619479;88;20161;-86
2021/07/08 02:42:06;;;;;;;;;;;;;;;25.63;74.82;100496.64;1589631;87;20494;-85
2021/07/08 02:44:32;;;;;;;;;;;;;;;25.27;76.64;100500.66;1606438;85;20382;-86
2021/07/08 02:46:58;;;;;;;;;;;;;;;25.14;77.52;100505.02;1610533;86;21121;-86
2021/07/08 02:49:24;;;;;;;;;;;;;;;25.05;78.18;100505.42;1596318;88;20226;-86
2021/07/08 02:51:50;;;;;;;;;;;;;;;24.89;79.02;100513.80;1617158;87;20381;-86
2021/07/08 02:54:15;;;;;;;;;;;;;;;24.85;79.25;100515.34;1611182;85;20158;-85
2021/07/08 02:56:41;;;;;;;;;;;;;;;24.76;79.99;100513.27;1608467;87;20501;-84
2021/07/08 02:59:06;;;;;;;;;;;;;;;24.93;79.07;100511.97;1625404;86;21740;-84
2021/07/08 03:01:32;;;;;;;;;;;;;;;24.87;79.62;100509.69;1601174;87;20148;-83
2021/07/08 03:03:57;;;;;;;;;;;;;;;24.83;79.70;100503.96;1591337;89;20488;-84
2021/07/08 03:06:23;;;;;;;;;;;;;;;24.87;79.44;100508.34;1633790;87;20150;-84
2021/07/08 03:08:49;;;;;;;;;;;;;;;24.88;79.53;100506.75;1596850;87;20703;-84
2021/07/08 03:11:14;;;;;;;;;;;;;;;24.93;79.41;100509.27;1645856;84;21112;-86
2021/07/08 03:13:42;;;;;;;;;;;;;;;24.98;79.07;100508.80;1649314;84;20918;-87
2021/07/08 03:16:07;;;;;;;;;;;;;;;24.98;79.13;100501.23;1643178;85;20165;-87
2021/07/08 03:18:33;;;;;;;;;;;;;;;24.95;79.25;100511.98;1641650;84;20247;-87
2021/07/08 03:20:58;;;;;;;;;;;;;;;25.15;78.38;100508.83;1632038;84;20206;-86
2021/07/08 03:23:24;;;;;;;;;;;;;;;25.20;78.20;100519.74;1621567;84;21150;-87
2021/07/08 03:25:50;;;;;;;;;;;;;;;25.19;78.22;100511.34;1646649;84;20500;-86
2021/07/08 03:28:15;;;;;;;;;;;;;;;25.26;77.67;100519.28;1639357;84;20175;-87
2021/07/08 03:30:41;;;;;;;;;;;;;;;25.13;78.25;100514.20;1646416;84;20185;-88
2021/07/08 03:33:07;;;;;;;;;;;;;;;25.12;78.34;100512.56;1638974;84;20181;-85
2021/07/08 03:35:32;;;;;;;;;;;;;;;25.10;78.55;100514.16;1643650;84;21964;-86
2021/07/08 03:37:58;;;;;;;;;;;;;;;25.09;78.31;100512.50;1644463;84;20272;-87
2021/07/08 03:40:24;;;;;;;;;;;;;;;25.02;78.51;100512.67;1641654;84;20151;-88
2021/07/08 03:42:49;;;;;;;;;;;;;;;25.04;78.46;100519.98;1628250;84;20173;-87
2021/07/08 03:45:15;;;;;;;;;;;;;;;24.98;78.85;100519.61;1669341;84;20477;-86
2021/07/08 03:47:41;;;;;;;;;;;;;;;24.85;79.76;100525.33;1647929;84;21494;-86
2021/07/08 03:50:08;;;;;;;;;;;;;;;24.86;79.69;100522.39;1647184;86;20382;-88
2021/07/08 03:52:33;;;;;;;;;;;;;;;24.62;81.09;100518.14;1622223;84;20232;-88
2021/07/08 03:54:59;;;;;;;;;;;;;;;24.73;80.62;100526.20;1632589;85;20180;-88
2021/07/08 03:57:24;;;;;;;;;;;;;;;24.63;81.68;100535.45;1637458;84;20218;-87
2021/07/08 03:59:50;;;;;;;;;;;;;;;24.61;82.05;100531.34;1656667;86;21372;-86
2021/07/08 04:02:15;;;;;;;;;;;;;;;24.59;82.37;100531.58;1639526;84;20177;-86
2021/07/08 04:04:42;;;;;;;;;;;;;;;24.32;84.05;100534.80;1650947;85;20188;-86
2021/07/08 04:07:08;;;;;;;;;;;;;;;24.46;83.82;100532.66;1640957;84;20208;-86
2021/07/08 04:09:33;;;;;;;;;;;;;;;24.56;83.86;100549.58;1626693;84;20191;-85
2021/07/08 04:11:59;;;;;;;;;;;;;;;24.43;84.55;100534.48;1634291;84;21153;-87
2021/07/08 04:14:25;;;;;;;;;;;;;;;24.46;84.75;100543.99;1621548;84;20216;-86
2021/07/08 04:16:51;;;;;;;;;;;;;;;24.53;84.53;100542.80;1641845;84;20204;-85
2021/07/08 04:19:16;;;;;;;;;;;;;;;24.55;84.91;100550.66;1638954;84;20237;-86
2021/07/08 04:21:42;;;;;;;;;;;;;;;24.69;84.35;100549.34;1654752;85;20476;-85
2021/07/08 04:24:08;;;;;;;;;;;;;;;24.79;84.08;100553.31;1626478;84;21825;-86
2021/07/08 04:26:33;;;;;;;;;;;;;;;24.60;84.81;100552.67;1646932;84;20536;-86
2021/07/08 04:28:59;;;;;;;;;;;;;;;24.62;84.75;100549.20;1634232;84;20543;-86
2021/07/08 04:31:24;;;;;;;;;;;;;;;24.66;84.59;100546.31;1657260;86;20538;-86
2021/07/08 04:33:50;;;;;;;;;;;;;;;24.72;84.32;100552.92;1650365;84;20220;-86
2021/07/08 04:36:16;;;;;;;;;;;;;;;24.73;84.25;100549.67;1645777;86;22012;-86
2021/07/08 04:38:42;;;;;;;;;;;;;;;24.78;83.79;100553.01;1646196;84;20202;-86
2021/07/08 04:41:08;;;;;;;;;;;;;;;24.86;83.69;100551.27;1639458;84;20211;-86
2021/07/08 04:43:34;;;;;;;;;;;;;;;24.92;83.37;100550.30;1644769;84;20191;-85
2021/07/08 04:45:59;;;;;;;;;;;;;;;24.92;83.26;100550.30;1636154;84;20203;-85
2021/07/08 04:48:25;;;;;;;;;;;;;;;24.96;83.33;100549.30;1622661;84;21087;-84
2021/07/08 04:50:50;;;;;;;;;;;;;;;25.19;82.20;100552.42;1638474;86;20201;-86
2021/07/08 04:53:16;;;;;;;;;;;;;;;25.31;81.56;100543.75;1636597;84;20195;-85
2021/07/08 04:55:42;;;;;;;;;;;;;;;25.35;81.39;100554.34;1625939;85;20649;-85
2021/07/08 04:58:07;;;;;;;;;;;;;;;25.56;80.47;100558.75;1654151;84;20145;-85
2021/07/08 05:00:33;;;;;;;;;;;;;;;25.57;80.11;100567.13;1639852;84;21895;-85
2021/07/08 05:02:58;;;;;;;;;;;;;;;25.51;80.37;100574.88;1621215;84;20167;-85
2021/07/08 05:05:24;;;;;;;;;;;;;;;25.51;80.40;100578.93;1632231;84;20179;-85
2021/07/08 05:07:50;;;;;;;;;;;;;;;25.51;80.26;100578.93;1625300;84;20515;-85
2021/07/08 05:10:16;;;;;;;;;;;;;;;25.44;80.37;100578.56;1650142;85;20712;-86
2021/07/08 05:12:42;;;;;;;;;;;;;;;25.59;79.72;100581.22;1654840;84;21118;-87
2021/07/08 05:15:09;;;;;;;;;;;;;;;25.51;79.93;100582.98;1659229;84;20200;-86
2021/07/08 05:17:35;;;;;;;;;;;;;;;25.60;79.89;100577.45;1645514;84;20664;-85
2021/07/08 05:20:01;;;;;;;;;;;;;;;25.56;79.79;100576.33;1633367;84;20156;-86
2021/07/08 05:22:26;;;;;;;;;;;;;;;25.55;79.82;100581.44;1620619;84;20290;-86
2021/07/08 05:24:52;;;;;;;;;;;;;;;25.61;79.56;100584.52;1651708;84;21105;-86
2021/07/08 05:27:18;;;;;;;;;;;;;;;25.61;79.75;100588.58;1653408;86;20628;-86
2021/07/08 05:29:44;;;;;;;;;;;;;;;25.53;80.18;100588.99;1624515;84;20210;-86
2021/07/08 05:32:10;;;;;;;;;;;;;;;25.56;79.95;100595.27;1648207;84;20557;-86
2021/07/08 05:34:35;;;;;;;;;;;;;;;25.65;79.46;100589.70;1648638;86;20485;-87
2021/07/08 05:37:01;;;;;;;;;;;;;;;25.60;79.58;100588.28;1628727;84;21146;-84
2021/07/08 05:39:26;;;;;;;;;;;;;;;25.63;79.61;100591.84;1639055;84;20533;-85
2021/07/08 05:41:52;;;;;;;;;;;;;;;25.52;79.90;100590.05;1621346;84;20180;-86
2021/07/08 05:44:17;;;;;;;;;;;;;;;25.58;79.86;100587.72;1634694;84;20176;-85
2021/07/08 05:46:43;;;;;;;;;;;;;;;25.63;79.49;100584.54;1650651;85;20637;-85
2021/07/08 05:49:09;;;;;;;;;;;;;;;25.71;79.19;100583.85;1638884;84;21156;-85
2021/07/08 05:51:34;;;;;;;;;;;;;;;25.89;78.68;100582.79;1649529;84;20197;-86
2021/07/08 05:54:00;;;;;;;;;;;;;;;26.01;78.09;100584.90;1660524;84;20625;-82
2021/07/08 05:56:26;;;;;;;;;;;;;;;26.11;77.52;100586.37;1621850;84;20151;-81
2021/07/08 05:58:52;;;;;;;;;;;;;;;26.10;77.36;100589.34;1655430;84;20658;-81
2021/07/08 06:01:19;;;;;;;;;;;;;;;26.16;77.37;100591.05;1638919;84;21095;-87
2021/07/08 06:03:44;;;;;;;;;;;;;;;26.40;76.97;100590.81;1665267;86;20205;-83
2021/07/08 06:06:10;;;;;;;;;;;;;;;26.41;76.62;100593.81;1636351;84;20204;-85
2021/07/08 06:08:35;;;;;;;;;;;;;;;26.64;76.01;100594.92;1621698;84;20171;-85
2021/07/08 06:11:01;;;;;;;;;;;;;;;26.91;74.84;100597.42;1637811;84;20579;-85
2021/07/08 06:13:26;;;;;;;;;;;;;;;26.91;74.51;100598.78;1650204;85;21106;-85
2021/07/08 06:15:52;;;;;;;;;;;;;;;26.89;74.31;100613.94;1636580;84;20479;-84
2021/07/08 06:18:18;;;;;;;;;;;;;;;26.92;74.34;100612.63;1642008;84;20476;-84
2021/07/08 06:20:43;;;;;;;;;;;;;;;26.65;75.04;100622.84;1649739;85;20145;-85
2021/07/08 06:23:09;;;;;;;;;;;;;;;26.59;75.49;100626.02;1644816;86;20186;-82
2021/07/08 06:25:34;;;;;;;;;;;;;;;26.61;75.35;100622.52;1641485;85;21095;-84
2021/07/08 06:28:00;;;;;;;;;;;;;;;26.53;75.59;100632.98;1648518;86;21057;-84
2021/07/08 06:30:25;;;;;;;;;;;;;;;26.44;75.95;100629.33;1643931;86;20459;-85
2021/07/08 06:32:51;;;;;;;;;;;;;;;26.51;75.64;100636.75;1639853;84;20583;-83
2021/07/08 06:35:21;;;;;;;;;;;;;;;26.29;76.28;100638.62;1645474;85;20206;-83
2021/07/08 06:37:46;;;;;;;;;;;;;;;26.21;76.49;100639.88;1650684;84;21143;-83
2021/07/08 06:40:15;;;;;;;;;;;;;;;26.31;76.25;100643.25;1646977;86;20483;-91
2021/07/08 06:42:40;;;;;;;;;;;;;;;26.34;76.14;100638.69;1649845;84;20229;-86
2021/07/08 06:45:10;;;;;;;;;;;;;;;26.17;76.46;100646.03;1651045;84;20190;-85
2021/07/08 06:47:43;;;;;;;;;;;;;;;26.09;76.59;100637.25;1649537;84;20169;-86
2021/07/08 06:50:06;;;;;;;;;;;;;;;26.08;76.39;100646.42;1634582;84;20144;-86
2021/07/08 06:52:31;;;;;;;;;;;;;;;25.93;77.17;100644.80;1657134;85;20258;-87
2021/07/08 06:54:57;;;;;;;;;;;;;;;26.14;76.38;100645.44;1637786;84;20460;-89
2021/07/08 06:57:23;;;;;;;;;;;;;;;26.17;76.48;100646.03;1635752;84;20437;-90
2021/07/08 06:59:48;;;;;;;;;;;;;;;26.18;76.32;100644.94;1644625;85;20166;-90
2021/07/08 07:02:14;;;;;;;;;;;;;;;26.41;75.36;100644.73;1641528;84;22035;-90
2021/07/08 07:04:39;;;;;;;;;;;;;;;26.54;75.12;100646.80;1646802;86;20154;-89
2021/07/08 07:07:05;;;;;;;;;;;;;;;26.68;74.56;100645.41;1631889;85;20194;-91
2021/07/08 07:09:30;;;;;;;;;;;;;;;26.88;74.05;100648.91;1652196;84;20174;-91
2021/07/08 07:11:56;;;;;;;;;;;;;;;26.96;73.79;100657.13;1658674;85;20180;-94
2021/07/08 07:14:22;;;;;;;;;;;;;;;26.77;73.94;100656.09;1654168;86;21096;-92
2021/07/08 07:16:47;;;;;;;;;;;;;;;26.71;74.30;100655.74;1650690;85;20181;-91
2021/07/08 07:19:13;;;;;;;;;;;;;;;26.81;73.48;100662.62;1648266;86;20425;-95
2021/07/08 07:21:38;;;;;;;;;;;;;;;26.98;73.31;100663.11;1641299;84;20259;-87
2021/07/08 07:24:04;;;;;;;;;;;;;;;27.16;72.44;100661.42;1637786;84;20165;-84
2021/07/08 07:26:30;;;;;;;;;;;;;;;27.30;72.12;100658.29;1649280;84;21995;-88
2021/07/08 07:28:55;;;;;;;;;;;;;;;27.37;71.79;100657.05;1655782;84;20161;-87
2021/07/08 07:31:21;;;;;;;;;;;;;;;27.22;71.89;100661.76;1648268;84;20183;-89
2021/07/08 07:33:47;;;;;;;;;;;;;;;27.45;70.93;100662.55;1650004;84;20214;-88
2021/07/08 07:36:12;;;;;;;;;;;;;;;27.57;70.55;100659.14;1652676;83;20138;-90
2021/07/08 07:38:39;;;;;;;;;;;;;;;27.34;71.08;100660.81;1645894;84;21245;-87
2021/07/08 07:41:06;;;;;;;;;;;;;;;27.45;70.54;100654.95;1654073;84;20162;-88
2021/07/08 07:43:31;;;;;;;;;;;;;;;27.67;69.82;100650.29;1649897;84;20215;-86
2021/07/08 07:45:57;;;;;;;;;;;;;;;27.83;69.40;100651.77;1647062;85;20178;-87
2021/07/08 07:48:22;;;;;;;;;;;;;;;27.91;68.99;100648.02;1641545;84;20636;-88
2021/07/08 07:50:48;;;;;;;;;;;;;;;27.76;69.47;100647.90;1631776;84;21893;-89
2021/07/08 07:53:13;;;;;;;;;;;;;;;27.76;69.12;100642.47;1650547;85;20158;-88
2021/07/08 07:55:39;;;;;;;;;;;;;;;27.76;69.15;100647.90;1650672;84;20169;-90
2021/07/08 07:58:05;;;;;;;;;;;;;;;27.83;68.88;100643.08;1654810;84;20519;-92
2021/07/08 08:00:31;;;;;;;;;;;;;;;28.01;68.51;100647.85;1645527;86;20234;-92
2021/07/08 08:02:57;;;;;;;;;;;;;;;27.94;68.23;100650.22;1651875;85;21095;-90
2021/07/08 08:10:45;;;;;;;;;;;;;;;27.85;68.89;100662.63;1651021;85;20217;-90
2021/07/08 08:13:10;;;;;;;;;;;;;;;28.03;68.12;100656.55;1648791;86;20807;-89
2021/07/08 08:15:36;;;;;;;;;;;;;;;27.90;68.41;100656.42;1649966;86;21097;-86
2021/07/08 08:18:02;;;;;;;;;;;;;;;28.15;67.72;100649.58;1652447;84;20568;-90
2021/07/08 08:20:28;;;;;;;;;;;;;;;28.11;67.63;100641.15;1644400;84;20419;-90
2021/07/08 08:22:54;;;;;;;;;;;;;;;28.26;67.55;100650.75;1636867;84;20238;-91
2021/07/08 08:25:19;;;;;;;;;;;;;;;28.24;67.67;100654.25;1650740;85;20391;-90
2021/07/08 08:27:45;;;;;;;;;;;;;;;28.18;67.78;100664.80;1638382;84;21172;-89
2021/07/08 08:30:13;;;;;;;;;;;;;;;28.36;67.47;100658.69;1646540;84;20314;-88
2021/07/08 08:32:38;;;;;;;;;;;;;;;28.14;67.96;100654.72;1652797;85;20543;-92
2021/07/08 08:35:05;;;;;;;;;;;;;;;28.46;67.16;100658.73;1649444;84;20184;-89
2021/07/08 08:37:30;;;;;;;;;;;;;;;28.54;66.62;100652.81;1634965;84;20201;-89
2021/07/08 08:39:56;;;;;;;;;;;;;;;28.54;66.56;100662.32;1636243;84;21160;-89
2021/07/08 08:42:24;;;;;;;;;;;;;;;28.41;66.95;100650.56;1651090;85;20131;-89
2021/07/08 08:44:49;;;;;;;;;;;;;;;28.59;66.58;100650.70;1659844;84;20214;-89
2021/07/08 08:47:14;;;;;;;;;;;;;;;28.68;66.12;100653.70;1652484;85;20181;-88
2021/07/08 08:49:40;;;;;;;;;;;;;;;28.74;66.21;100645.84;1656993;86;20174;-90
2021/07/08 08:52:07;;;;;;;;;;;;;;;28.93;65.86;100651.09;1650245;84;21079;-90
2021/07/08 08:54:33;;;;;;;;;;;;;;;28.90;66.04;100647.55;1630622;84;20256;-89
2021/07/08 08:56:58;;;;;;;;;;;;;;;28.94;65.76;100645.92;1645827;85;20158;-87
2021/07/08 08:59:24;;;;;;;;;;;;;;;28.91;66.09;100638.84;1654642;85;20727;-89
2021/07/08 09:02:19;;;;;;;;;;;;;;;29.05;65.71;100640.52;1647152;86;20147;-90
2021/07/08 09:04:45;;;;;;;;;;;;;;;29.07;65.49;100642.42;1649335;84;21156;-87
2021/07/08 09:07:26;;;;;;;;;;;;;;;29.17;65.16;100630.22;1646598;85;20215;-87
2021/07/08 09:09:56;;;;;;;;;;;;;;;29.35;64.53;100627.02;1648546;84;20227;-88
2021/07/08 09:12:23;;;;;;;;;;;;;;;29.42;64.32;100628.10;1647079;84;20718;-89
2021/07/08 09:14:50;;;;;;;;;;;;;;;29.63;64.14;100629.47;1652479;85;20240;-88
2021/07/08 09:17:19;;;;;;;;;;;;;;;29.72;64.00;100625.95;1648409;84;21143;-89
2021/07/08 09:19:46;;;;;;;;;;;;;;;29.83;63.59;100634.13;1638983;84;20565;-87
2021/07/08 09:22:13;;;;;;;;;;;;;;;30.01;62.94;100627.30;1646614;86;20264;-87
2021/07/08 09:24:38;;;;;;;;;;;;;;;30.02;63.19;100627.03;1652663;84;20335;-85
2021/07/08 09:27:09;;;;;;;;;;;;;;;30.10;62.79;100626.21;1647399;85;20230;-91
2021/07/08 09:29:39;;;;;;;;;;;;;;;29.89;63.10;100622.13;1650595;85;21254;-91
2021/07/08 09:32:13;;;;;;;;;;;;;;;30.06;62.20;100618.59;1650413;85;20318;-91
2021/07/08 09:34:40;;;;;;;;;;;;;;;30.15;62.31;100615.30;1645739;84;20210;-88
2021/07/08 09:37:14;;;;;;;;;;;;;;;30.21;62.20;100611.47;1644442;85;20210;-87
2021/07/08 09:39:53;;;;;;;;;;;;;;;30.08;62.62;100619.13;1645253;84;20283;-88
2021/07/08 09:42:32;;;;;;;;;;;;;;;30.18;61.80;100616.11;1655989;84;21171;-88
2021/07/08 09:45:12;;;;;;;;;;;;;;;30.41;61.50;100607.89;1648958;84;20548;-89
2021/07/08 09:47:51;;;;;;;;;;;;;;;30.63;60.94;100600.71;1653272;85;20197;-86
2021/07/08 09:50:26;;;;;;;;;;;;;;;30.73;60.77;100607.49;1646566;86;20215;-88
2021/07/08 09:53:02;;;;;;;;;;;;;;;30.96;60.14;100601.08;1638553;84;20248;-86
2021/07/08 09:55:33;;;;;;;;;;;;;;;31.18;59.92;100608.06;1647579;84;22037;-86
2021/07/08 09:58:03;;;;;;;;;;;;;;;31.00;59.19;100606.28;1650145;85;20190;-89
2021/07/08 10:00:31;;;;;;;;;;;;;;;30.83;60.08;100604.45;1645613;85;20182;-88
2021/07/08 10:02:57;;;;;;;;;;;;;;;30.98;59.94;100598.09;1631022;84;20247;-90
2021/07/08 10:05:25;;;;;;;;;;;;;;;31.20;59.71;100603.13;1647925;85;20914;-89
2021/07/08 10:07:50;;;;;;;;;;;;;;;31.17;59.52;100603.70;1647226;85;21166;-87
2021/07/08 10:10:23;;;;;;;;;;;;;;;31.34;59.50;100604.14;1652592;85;37559;-87
2021/07/08 10:12:49;;;;;;;;;;;;;;;31.48;58.88;100607.03;1644169;86;20166;-90
2021/07/08 10:15:15;;;;;;;;;;;;;;;31.44;58.96;100605.41;1655607;84;20554;-89
2021/07/08 10:17:41;;;;;;;;;;;;;;;31.27;59.36;100601.71;1645394;85;20380;-91
2021/07/08 10:20:12;;;;;;;;;;;;;;;31.14;59.97;100605.91;1655391;84;21066;-89
2021/07/08 10:22:38;;;;;;;;;;;;;;;31.24;59.97;100603.64;1647991;85;20207;-91
2021/07/08 10:25:04;;;;;;;;;;;;;;;31.32;59.54;100598.13;1654407;85;20171;-88
2021/07/08 10:27:30;;;;;;;;;;;;;;;31.05;60.13;100592.59;1646274;86;20241;-87
2021/07/08 10:29:57;;;;;;;;;;;;;;;31.26;59.79;100595.17;1661239;84;20522;-90
2021/07/08 10:32:23;;;;;;;;;;;;;;;31.23;59.89;100593.02;1645853;86;20990;-89
2021/07/08 10:34:49;;;;;;;;;;;;;;;31.38;59.64;100584.71;1648705;85;20177;-89
2021/07/08 10:37:36;;;;;;;;;;;;;;;31.32;59.67;100582.59;1647141;85;20226;-92
2021/07/08 10:40:04;;;;;;;;;;;;;;;31.40;58.94;100583.89;1639168;84;20193;-94
2021/07/08 10:42:48;;;;;;;;;;;;;;;31.38;59.00;100580.62;1643990;84;20259;-89
2021/07/08 10:45:27;;;;;;;;;;;;;;;31.61;58.37;100579.09;1649189;85;20335;-88
2021/07/08 10:47:53;;;;;;;;;;;;;;;31.95;57.40;100578.78;1642494;84;20184;-87
2021/07/08 10:50:43;;;;;;;;;;;;;;;32.06;57.15;100574.82;1651972;84;20373;-90
2021/07/08 10:53:26;;;;;;;;;;;;;;;32.08;57.04;100572.60;1641594;84;20239;-90
2021/07/08 10:56:00;;;;;;;;;;;;;;;32.21;57.17;100572.52;1648410;84;20284;-89
2021/07/08 10:58:40;;;;;;;;;;;;;;;32.50;56.71;100568.86;1637543;84;21092;-90
2021/07/08 11:01:07;;;;;;;;;;;;;;;32.55;56.31;100565.52;1646008;86;20250;-90
2021/07/08 11:03:38;;;;;;;;;;;;;;;32.66;56.42;100563.48;1644456;84;20215;-90
2021/07/08 11:06:19;;;;;;;;;;;;;;;32.75;55.71;100564.98;1653067;85;20383;-92
2021/07/08 11:08:49;;;;;;;;;;;;;;;32.66;55.98;100569.48;1644468;85;20182;-91
2021/07/08 11:11:24;;;;;;;;;;;;;;;32.67;55.58;100566.46;1652200;85;21894;-93
2021/07/08 11:13:50;;;;;;;;;;;;;;;32.74;56.17;100552.44;1650158;84;20190;-87
2021/07/08 11:16:54;;;;;;;;;;;;;;;32.87;55.79;100551.68;1664964;85;20387;-87
2021/07/08 11:19:24;;;;;;;;;;;;;;;33.10;54.96;100559.54;1601728;88;20567;-86
2021/07/08 11:21:59;;;;;;;;;;;;;;;33.18;54.58;100553.97;1598685;87;20189;-85
2021/07/08 11:24:41;;;;;;;;;;;;;;;33.06;54.61;100540.73;1604964;88;21135;-86
2021/07/08 11:27:08;;;;;;;;;;;;;;;32.87;55.28;100554.41;1602730;87;20237;-88
2021/07/08 11:29:46;;;;;;;;;;;;;;;33.01;54.97;100553.11;1602095;88;20245;-86
2021/07/08 11:32:24;;;;;;;;;;;;;;;33.07;54.62;100547.02;1598060;88;20234;-89
2021/07/08 11:35:00;;;;;;;;;;;;;;;33.03;55.00;100543.23;1605456;87;20304;-87
2021/07/08 11:37:31;;;;;;;;;;;;;;;32.72;55.76;100543.70;1599317;88;21151;-91
2021/07/08 11:39:57;;;;;;;;;;;;;;;33.19;54.60;100543.30;1628414;85;20207;-85
2021/07/08 11:42:24;;;;;;;;;;;;;;;33.38;54.06;100535.59;1619040;86;20125;-90
2021/07/08 11:45:03;;;;;;;;;;;;;;;33.49;53.55;100532.92;1635243;87;20175;-88
2021/07/08 11:47:45;;;;;;;;;;;;;;;33.72;53.66;100529.80;1606748;87;20627;-83
2021/07/08 11:50:22;;;;;;;;;;;;;;;33.64;52.84;100534.02;1597294;88;21289;-87
2021/07/08 11:52:49;;;;;;;;;;;;;;;33.90;51.93;100532.17;1630895;87;20156;-86
2021/07/08 11:55:15;;;;;;;;;;;;;;;34.20;51.69;100523.09;1599673;88;20187;-85
2021/07/08 11:57:54;;;;;;;;;;;;;;;34.42;50.02;100518.27;1596948;88;20237;-83
2021/07/08 12:00:28;;;;;;;;;;;;;;;34.58;49.49;100515.98;1595750;88;20237;-83
2021/07/08 12:02:53;;;;;;;;;;;;;;;34.67;49.38;100518.23;1593486;87;21878;-86
2021/07/08 12:05:21;;;;;;;;;;;;;;;34.88;48.77;100513.66;1623172;87;20196;-84
2021/07/08 12:07:50;;;;;;;;;;;;;;;35.10;48.56;100509.30;1628236;86;20195;-82
2021/07/08 12:10:23;;;;;;;;;;;;;;;35.23;46.44;100511.16;1620131;86;20236;-83
2021/07/08 12:12:42;;;;;;;;;;;;;;;35.32;45.77;100509.88;1627125;86;20201;-84
2021/07/08 12:15:08;;;;;;;;;;;;;;;35.55;43.58;100503.75;1630178;86;21173;-88
2021/07/08 12:17:33;;;;;;;;;;;;;;;35.62;42.55;100500.57;1629505;86;20204;-86
2021/07/08 12:20:07;;;;;;;;;;;;;;;35.75;41.74;100501.84;1628072;87;20155;-87
2021/07/08 12:22:33;;;;;;;;;;;;;;;35.83;40.96;100496.70;1630581;86;20544;-86
2021/07/08 12:24:58;;;;;;;;;;;;;;;35.95;39.56;100498.27;1635758;87;20181;-86
2021/07/08 12:27:26;;;;;;;;;;;;;;;35.93;38.98;100497.22;1631186;86;21142;-88
2021/07/08 12:29:51;;;;;;;;;;;;;;;36.09;38.59;100495.40;1628561;87;20176;-85
2021/07/08 12:32:19;;;;;;;;;;;;;;;36.18;37.61;100499.55;1626924;86;20147;-87
2021/07/08 12:34:49;;;;;;;;;;;;;;;36.15;36.87;100500.19;1619437;87;20486;-84
2021/07/08 12:37:32;;;;;;;;;;;;;;;36.24;37.37;100495.52;1620526;87;20259;-85
2021/07/08 12:40:04;;;;;;;;;;;;;;;36.41;36.17;100500.27;1618872;87;21287;-84
2021/07/08 12:42:34;;;;;;;;;;;;;;;36.59;35.93;100501.06;1622203;87;20188;-84